createdAt,value
2022-08-03T00:01:38.209Z,8.05
2022-08-03T00:04:09.284Z,6.63
2022-08-03T00:06:37.431Z,8.30
2022-08-03T00:09:06.400Z,9.73
2022-08-03T00:11:34.807Z,8.00
2022-08-03T00:14:02.616Z,8.18
2022-08-03T00:16:30.123Z,9.75
2022-08-03T00:18:57.544Z,8.80
2022-08-03T00:21:25.096Z,7.55
2022-08-03T00:23:53.016Z,9.18
2022-08-03T00:26:22.046Z,11.15
2022-08-03T00:28:50.470Z,8.73
2022-08-03T00:31:30.950Z,6.55
2022-08-03T00:34:06.178Z,9.93
2022-08-03T00:36:34.317Z,7.10
2022-08-03T00:39:01.619Z,7.97
2022-08-03T00:41:29.060Z,6.95
2022-08-03T00:43:56.381Z,7.00
2022-08-03T00:46:23.820Z,7.57
2022-08-03T00:48:51.995Z,7.78
2022-08-03T00:51:20.877Z,9.73
2022-08-03T00:53:48.421Z,10.68
2022-08-03T00:56:17.810Z,7.13
2022-08-03T00:58:47.509Z,8.32
2022-08-03T01:01:15.933Z,7.80
2022-08-03T01:03:45.252Z,8.27
2022-08-03T01:16:20.671Z,10.38
2022-08-03T01:19:17.024Z,11.95
2022-08-03T01:21:59.094Z,8.32
2022-08-03T01:25:16.355Z,8.07
2022-08-03T01:28:40.002Z,8.48
2022-08-03T01:31:16.542Z,8.77
2022-08-03T01:33:50.267Z,7.82
2022-08-03T01:36:23.301Z,9.30
2022-08-03T01:38:56.670Z,7.93
2022-08-03T01:41:33.874Z,8.98
2022-08-03T01:44:29.379Z,8.13
2022-08-03T01:47:01.656Z,9.95
2022-08-03T01:49:34.198Z,7.50
2022-08-03T01:52:05.458Z,11.40
2022-08-03T01:54:42.611Z,8.52
2022-08-03T01:57:11.375Z,8.52
2022-08-03T01:59:40.569Z,9.55
2022-08-03T02:02:28.717Z,9.10
2022-08-03T02:04:59.465Z,8.98
2022-08-03T02:07:29.805Z,7.70
2022-08-03T02:09:59.140Z,9.57
2022-08-03T02:12:30.177Z,9.40
2022-08-03T02:14:59.931Z,9.40
2022-08-03T02:17:39.088Z,8.30
2022-08-03T02:20:12.395Z,8.50
2022-08-03T02:22:44.737Z,7.90
2022-08-03T02:25:14.674Z,7.82
2022-08-03T02:27:53.326Z,9.98
2022-08-03T02:30:22.329Z,8.18
2022-08-03T02:32:55.834Z,9.75
2022-08-03T02:35:27.456Z,11.70
2022-08-03T02:38:01.562Z,10.27
2022-08-03T02:43:07.746Z,8.95
2022-08-03T02:45:45.504Z,9.00
2022-08-03T02:48:25.100Z,9.02
2022-08-03T02:50:55.394Z,7.85
2022-08-03T02:53:24.634Z,9.20
2022-08-03T02:55:54.146Z,8.60
2022-08-03T02:58:23.542Z,8.57
2022-08-03T03:00:52.210Z,7.80
2022-08-03T03:03:21.620Z,9.52
2022-08-03T03:05:55.165Z,10.00
2022-08-03T03:08:28.661Z,8.85
2022-08-03T03:11:01.401Z,14.10
2022-08-03T03:13:33.122Z,9.93
2022-08-03T03:16:04.920Z,9.85
2022-08-03T03:18:34.625Z,9.02
2022-08-03T03:21:04.482Z,9.27
2022-08-03T03:23:36.219Z,8.90
2022-08-03T03:26:04.139Z,9.75
2022-08-03T03:28:33.195Z,10.88
2022-08-03T03:31:02.102Z,8.75
2022-08-03T03:33:29.459Z,9.05
2022-08-03T03:35:58.564Z,10.57
2022-08-03T03:38:26.200Z,9.38
2022-08-03T03:40:54.191Z,9.07
2022-08-03T03:43:24.016Z,11.85
2022-08-03T03:45:53.147Z,10.57
2022-08-03T03:48:21.210Z,9.25
2022-08-03T03:50:50.656Z,8.52
2022-08-03T03:53:18.054Z,10.95
2022-08-03T03:55:57.847Z,9.02
2022-08-03T03:58:31.935Z,10.80
2022-08-03T04:00:59.726Z,8.77
2022-08-03T04:03:27.290Z,10.40
2022-08-03T04:06:13.368Z,14.02
2022-08-03T04:08:59.958Z,13.05
2022-08-03T04:11:35.070Z,9.00
2022-08-03T04:14:26.892Z,9.88
2022-08-03T04:16:59.839Z,10.68
2022-08-03T04:19:45.511Z,9.18
2022-08-03T04:22:21.645Z,10.52
2022-08-03T04:25:01.784Z,14.15
2022-08-03T04:27:36.837Z,11.45
2022-08-03T04:30:06.733Z,14.02
2022-08-03T04:32:36.432Z,12.50
2022-08-03T04:35:06.728Z,15.07
2022-08-03T04:37:44.251Z,12.85
2022-08-03T04:40:16.469Z,14.85
2022-08-03T04:42:50.294Z,15.55
2022-08-03T04:45:20.063Z,13.07
2022-08-03T04:47:48.093Z,13.25
2022-08-03T04:50:21.221Z,14.50
2022-08-03T04:52:49.700Z,12.00
2022-08-03T04:55:34.632Z,12.23
2022-08-03T04:58:04.112Z,12.20
2022-08-03T05:00:32.362Z,14.45
2022-08-03T05:02:59.667Z,10.98
2022-08-03T05:05:48.871Z,14.75
2022-08-03T05:08:14.450Z,11.93
2022-08-03T05:10:41.746Z,13.15
2022-08-03T05:13:12.993Z,12.48
2022-08-03T05:15:42.962Z,16.15
2022-08-03T05:18:14.137Z,13.55
2022-08-03T05:20:42.095Z,13.77
2022-08-03T05:23:09.368Z,14.30
2022-08-03T05:25:36.667Z,11.02
2022-08-03T05:28:04.480Z,11.20
2022-08-03T05:30:34.334Z,10.52
2022-08-03T05:33:03.800Z,14.45
2022-08-03T05:35:57.474Z,11.23
2022-08-03T05:38:24.024Z,14.13
2022-08-03T05:41:22.905Z,9.05
2022-08-03T05:43:48.056Z,11.68
2022-08-03T05:46:15.955Z,9.38
2022-08-03T05:48:43.835Z,11.60
2022-08-03T05:51:12.126Z,12.02
2022-08-03T05:53:41.448Z,10.75
2022-08-03T05:56:14.611Z,12.70
2022-08-03T05:58:52.769Z,10.88
2022-08-03T06:01:23.680Z,12.23
2022-08-03T06:03:52.279Z,13.35
2022-08-03T06:06:20.061Z,12.23
2022-08-03T06:08:48.973Z,12.07
2022-08-03T06:11:16.699Z,9.02
2022-08-03T06:13:44.894Z,11.93
2022-08-03T06:16:12.356Z,11.38
2022-08-03T06:18:40.584Z,11.30
2022-08-03T06:21:14.677Z,10.88
2022-08-03T06:23:54.397Z,14.93
2022-08-03T06:26:27.853Z,12.23
2022-08-03T06:28:55.956Z,16.13
2022-08-03T06:31:32.393Z,15.60
2022-08-03T06:34:32.100Z,12.30
2022-08-03T06:36:52.886Z,12.82
2022-08-03T06:39:23.557Z,13.43
2022-08-03T06:41:51.783Z,18.55
2022-08-03T06:44:19.057Z,17.85
2022-08-03T06:46:47.836Z,10.35
2022-08-03T06:49:15.176Z,13.57
2022-08-03T06:52:03.081Z,13.82
2022-08-03T06:54:32.928Z,14.73
2022-08-03T06:57:00.964Z,13.77
2022-08-03T07:00:09.498Z,12.00
2022-08-03T07:02:19.023Z,12.07
2022-08-03T07:04:48.543Z,16.83
2022-08-03T07:07:15.994Z,9.32
2022-08-03T07:09:43.289Z,16.90
2022-08-03T07:12:27.041Z,9.75
2022-08-03T07:14:59.763Z,14.25
2022-08-03T07:17:29.778Z,8.85
2022-08-03T07:19:57.806Z,8.30
2022-08-03T07:22:25.500Z,10.27
2022-08-03T07:24:52.909Z,16.65
2022-08-03T07:27:20.323Z,12.65
2022-08-03T07:29:47.560Z,9.07
2022-08-03T07:32:15.189Z,8.73
2022-08-03T07:34:42.636Z,12.77
2022-08-03T07:37:09.983Z,10.85
2022-08-03T07:39:37.231Z,9.80
2022-08-03T07:42:05.630Z,13.10
2022-08-03T07:44:32.983Z,7.88
2022-08-03T07:47:03.219Z,13.65
2022-08-03T07:49:30.998Z,11.95
2022-08-03T07:52:17.541Z,8.85
2022-08-03T07:54:45.200Z,11.30
2022-08-03T07:57:12.945Z,13.65
2022-08-03T07:59:56.431Z,9.68
2022-08-03T08:02:24.866Z,19.88
2022-08-03T08:04:52.370Z,9.50
2022-08-03T08:07:20.714Z,11.02
2022-08-03T08:09:48.088Z,13.52
2022-08-03T08:12:16.092Z,12.63
2022-08-03T08:14:46.784Z,10.40
2022-08-03T08:17:14.595Z,10.10
2022-08-03T08:19:47.525Z,12.80
2022-08-03T08:22:26.522Z,11.77
2022-08-03T08:27:27.323Z,8.13
2022-08-03T08:29:58.845Z,11.65
2022-08-03T08:32:29.931Z,13.13
2022-08-03T08:34:57.916Z,13.02
2022-08-03T08:37:25.258Z,8.43
2022-08-03T08:39:52.541Z,8.00
2022-08-03T08:42:19.853Z,12.23
2022-08-03T08:44:47.160Z,7.78
2022-08-03T08:47:15.949Z,6.93
2022-08-03T08:49:53.577Z,8.10
2022-08-03T08:52:32.222Z,6.50
2022-08-03T08:55:04.142Z,6.60
2022-08-03T08:57:43.162Z,7.18
2022-08-03T09:00:15.504Z,4.55
2022-08-03T09:02:44.842Z,4.45
2022-08-03T09:05:17.944Z,9.43
2022-08-03T09:07:47.864Z,6.30
2022-08-03T09:10:19.949Z,5.95
2022-08-03T09:12:52.314Z,4.68
2022-08-03T09:15:23.461Z,4.53
2022-08-03T09:17:54.075Z,4.82
2022-08-03T09:20:24.137Z,4.43
2022-08-03T09:23:44.987Z,6.65
2022-08-03T09:26:01.801Z,3.53
2022-08-03T09:29:00.844Z,6.07
2022-08-03T09:34:15.178Z,6.25
2022-08-03T09:36:48.405Z,4.55
2022-08-03T09:39:40.796Z,8.43
2022-08-03T09:42:23.547Z,4.32
2022-08-03T09:44:52.842Z,3.75
2022-08-03T09:47:36.802Z,5.13
2022-08-03T09:50:13.034Z,6.30
2022-08-03T09:52:49.609Z,3.80
2022-08-03T09:56:33.494Z,3.92
2022-08-03T09:58:14.400Z,4.85
2022-08-03T10:01:24.008Z,6.13
2022-08-03T10:04:03.182Z,7.05
2022-08-03T10:06:32.117Z,4.60
2022-08-03T10:09:17.886Z,6.10
2022-08-03T10:11:47.069Z,4.43
2022-08-03T10:14:19.370Z,4.53
2022-08-03T10:16:48.574Z,4.95
2022-08-03T10:19:16.630Z,3.95
2022-08-03T10:21:54.313Z,4.75
2022-08-03T10:24:27.534Z,4.07
2022-08-03T10:27:08.108Z,5.68
2022-08-03T10:29:42.585Z,4.32
2022-08-03T10:32:28.757Z,4.18
2022-08-03T10:35:20.044Z,4.65
2022-08-03T10:38:18.717Z,4.80
2022-08-03T10:40:49.597Z,5.38
2022-08-03T10:43:34.726Z,4.28
2022-08-03T10:46:07.581Z,5.55
2022-08-03T10:48:36.938Z,3.50
2022-08-03T10:51:04.986Z,4.28
2022-08-03T10:53:54.481Z,4.13
2022-08-03T10:56:53.483Z,4.45
2022-08-03T10:59:46.749Z,4.68
2022-08-03T11:02:15.630Z,3.80
2022-08-03T11:04:44.869Z,3.97
2022-08-03T11:07:18.432Z,5.40
2022-08-03T11:09:49.203Z,3.40
2022-08-03T11:12:30.661Z,4.32
2022-08-03T11:15:04.422Z,4.40
2022-08-03T11:17:46.162Z,4.95
2022-08-03T11:21:00.457Z,6.30
2022-08-03T11:24:05.307Z,5.80
2022-08-03T11:26:35.074Z,7.00
2022-08-03T11:29:30.710Z,5.72
2022-08-03T11:31:58.549Z,5.22
2022-08-03T11:34:26.469Z,6.25
2022-08-03T11:37:30.151Z,4.43
2022-08-03T11:40:02.588Z,5.68
2022-08-03T11:42:36.649Z,4.45
2022-08-03T11:45:09.018Z,4.28
2022-08-03T11:47:50.581Z,3.65
2022-08-03T11:50:20.059Z,5.07
2022-08-03T11:52:48.460Z,4.40
2022-08-03T11:55:20.472Z,9.82
2022-08-03T11:59:00.851Z,7.53
2022-08-03T12:01:08.316Z,7.10
2022-08-03T12:03:36.425Z,4.30
2022-08-03T12:06:04.800Z,5.90
2022-08-03T12:08:34.190Z,4.00
2022-08-03T12:11:05.877Z,5.13
2022-08-03T12:13:56.816Z,6.88
2022-08-03T12:16:28.910Z,5.57
2022-08-03T12:19:06.953Z,6.43
2022-08-03T12:21:34.380Z,3.85
2022-08-03T12:24:05.034Z,5.70
2022-08-03T12:26:57.231Z,6.05
2022-08-03T12:29:27.487Z,5.38
2022-08-03T12:31:56.137Z,6.03
2022-08-03T12:34:23.760Z,5.60
2022-08-03T12:36:56.224Z,4.50
2022-08-03T12:39:27.586Z,4.32
2022-08-03T12:41:57.083Z,4.53
2022-08-03T12:44:33.898Z,7.30
2022-08-03T12:47:06.833Z,3.33
2022-08-03T12:49:52.258Z,6.72
2022-08-03T12:52:22.279Z,7.15
2022-08-03T12:55:00.876Z,4.50
2022-08-03T12:57:48.772Z,3.85
2022-08-03T13:00:29.121Z,4.80
2022-08-03T13:05:55.670Z,3.45
2022-08-03T13:08:25.717Z,4.40
2022-08-03T13:10:53.354Z,5.30
2022-08-03T13:13:39.788Z,3.47
2022-08-03T13:16:07.032Z,4.53
2022-08-03T13:18:34.292Z,4.40
2022-08-03T13:21:02.314Z,6.30
2022-08-03T13:23:36.091Z,4.25
2022-08-03T13:26:03.333Z,8.68
2022-08-03T13:28:30.704Z,10.27
2022-08-03T13:30:57.966Z,4.85
2022-08-03T13:33:26.688Z,11.48
2022-08-03T13:35:53.963Z,7.70
2022-08-03T13:38:21.633Z,5.35
2022-08-03T13:40:54.575Z,5.95
2022-08-03T13:43:23.371Z,5.72
2022-08-03T13:45:54.822Z,4.70
2022-08-03T13:48:36.965Z,5.68
2022-08-03T13:51:11.695Z,4.05
2022-08-03T13:53:52.338Z,5.13
2022-08-03T13:56:19.664Z,6.30
2022-08-03T13:58:53.335Z,3.85
2022-08-03T14:01:53.649Z,6.38
2022-08-03T14:04:21.627Z,4.65
2022-08-03T14:06:49.820Z,4.05
2022-08-03T14:09:17.770Z,4.93
2022-08-03T14:12:07.078Z,3.67
2022-08-03T14:14:33.297Z,4.15
2022-08-03T14:17:00.591Z,10.82
2022-08-03T14:19:27.893Z,4.43
2022-08-03T14:22:06.007Z,3.83
2022-08-03T14:24:33.661Z,4.47
2022-08-03T14:27:08.641Z,5.38
2022-08-03T14:29:36.465Z,4.53
2022-08-03T14:32:11.448Z,6.45
2022-08-03T14:34:40.960Z,3.50
2022-08-03T14:37:08.753Z,3.78
2022-08-03T14:42:23.926Z,3.63
2022-08-03T14:44:51.202Z,3.92
2022-08-03T14:47:18.598Z,3.28
2022-08-03T14:50:38.545Z,5.95
2022-08-03T14:52:33.832Z,6.10
2022-08-03T14:55:01.849Z,4.43
2022-08-03T14:57:37.221Z,4.13
2022-08-03T15:00:05.757Z,3.00
2022-08-03T15:02:33.271Z,2.90
2022-08-03T15:05:00.787Z,4.28
2022-08-03T15:07:28.092Z,3.53
2022-08-03T15:09:55.576Z,2.63
2022-08-03T15:12:23.303Z,4.78
2022-08-03T15:14:50.615Z,3.80
2022-08-03T15:17:19.288Z,3.72
2022-08-03T15:20:00.217Z,3.33
2022-08-03T15:22:34.712Z,4.13
2022-08-03T15:26:01.721Z,3.92
2022-08-03T15:28:03.071Z,3.30
2022-08-03T15:30:35.995Z,3.55
2022-08-03T15:33:04.234Z,2.80
2022-08-03T15:35:31.637Z,4.25
2022-08-03T15:37:58.890Z,2.92
2022-08-03T15:40:26.447Z,3.80
2022-08-03T15:42:53.745Z,3.80
2022-08-03T15:45:21.039Z,2.53
2022-08-03T15:47:51.319Z,3.17
2022-08-03T15:50:18.648Z,3.90
2022-08-03T15:52:46.060Z,2.83
2022-08-03T15:55:15.703Z,3.72
2022-08-03T15:59:03.154Z,2.70
2022-08-03T16:00:33.642Z,2.58
2022-08-03T16:03:01.722Z,3.95
2022-08-03T16:05:29.450Z,4.15
2022-08-03T16:08:02.568Z,2.65
2022-08-03T16:10:31.748Z,4.10
2022-08-03T16:13:00.333Z,3.28
2022-08-03T16:15:29.133Z,3.78
2022-08-03T16:17:56.750Z,4.88
2022-08-03T16:20:31.418Z,2.38
2022-08-03T16:23:05.517Z,3.13
2022-08-03T16:25:40.737Z,3.13
2022-08-03T16:28:13.770Z,2.30
2022-08-03T16:33:17.172Z,2.75
2022-08-03T16:35:46.761Z,4.28
2022-08-03T16:38:18.783Z,3.35
2022-08-03T16:40:51.634Z,3.25
2022-08-03T16:43:22.690Z,2.92
2022-08-03T16:45:50.570Z,3.90
2022-08-03T16:48:19.217Z,2.50
2022-08-03T16:50:47.074Z,3.17
2022-08-03T16:53:16.842Z,3.42
2022-08-03T16:55:53.600Z,5.60
2022-08-03T16:58:41.161Z,3.38
2022-08-03T17:01:22.350Z,4.50
2022-08-03T17:04:04.762Z,6.55
2022-08-03T17:06:38.367Z,5.45
2022-08-03T17:09:17.994Z,3.90
2022-08-03T17:11:49.229Z,5.93
2022-08-03T17:14:22.927Z,6.50
2022-08-03T17:17:03.841Z,4.95
2022-08-03T17:19:32.810Z,6.18
2022-08-03T17:22:15.893Z,7.38
2022-08-03T17:24:54.616Z,4.50
2022-08-03T17:28:51.519Z,4.63
2022-08-03T17:30:18.868Z,5.07
2022-08-03T17:32:57.220Z,4.35
2022-08-03T17:35:38.619Z,7.55
2022-08-03T17:38:11.848Z,3.67
2022-08-03T17:40:43.049Z,6.75
2022-08-03T17:44:13.083Z,4.40
2022-08-03T17:48:34.450Z,4.78
2022-08-03T17:51:22.444Z,3.33
2022-08-03T17:54:18.569Z,5.60
2022-08-03T17:58:01.441Z,5.18
2022-08-03T18:00:42.684Z,4.50
2022-08-03T18:03:23.489Z,10.55
2022-08-03T18:06:11.910Z,5.82
2022-08-03T18:08:52.456Z,5.90
2022-08-03T18:11:37.162Z,5.00
2022-08-03T18:14:57.928Z,5.30
2022-08-03T18:17:55.696Z,5.15
2022-08-03T18:20:34.369Z,5.05
2022-08-03T18:23:10.657Z,4.03
2022-08-03T18:25:45.765Z,3.55
2022-08-03T18:28:19.434Z,7.32
2022-08-03T18:30:54.121Z,3.63
2022-08-03T18:34:16.594Z,4.78
2022-08-03T18:36:18.021Z,5.85
2022-08-03T18:38:53.929Z,5.13
2022-08-03T18:41:33.282Z,7.45
2022-08-03T18:44:07.606Z,8.98
2022-08-03T18:47:17.366Z,6.55
2022-08-03T18:50:02.413Z,4.57
2022-08-03T18:52:45.890Z,6.13
2022-08-03T18:55:33.440Z,4.78
2022-08-03T18:58:34.661Z,4.93
2022-08-03T19:02:00.593Z,5.40
2022-08-03T19:04:41.034Z,7.13
2022-08-03T19:09:49.896Z,7.47
2022-08-03T19:12:30.833Z,5.65
2022-08-03T19:15:10.599Z,6.25
2022-08-03T19:17:53.180Z,5.10
2022-08-03T19:20:27.323Z,6.10
2022-08-03T19:22:57.892Z,5.38
2022-08-03T19:25:35.212Z,6.28
2022-08-03T19:28:06.515Z,5.60
2022-08-03T19:30:40.637Z,6.15
2022-08-03T19:33:15.274Z,6.68
2022-08-03T19:35:54.938Z,8.55
2022-08-03T19:38:28.453Z,6.78
2022-08-03T19:41:03.795Z,7.90
2022-08-03T19:43:49.520Z,6.35
2022-08-03T19:46:22.684Z,6.30
2022-08-03T19:49:10.566Z,5.40
2022-08-03T19:52:02.266Z,5.53
2022-08-03T19:54:45.810Z,7.65
2022-08-03T19:57:25.412Z,9.00
2022-08-03T19:59:56.354Z,6.70
2022-08-03T20:02:26.343Z,7.75
2022-08-03T20:05:00.034Z,4.88
2022-08-03T20:07:32.886Z,5.47
2022-08-03T20:10:05.271Z,6.88
2022-08-03T20:12:39.271Z,13.70
2022-08-03T20:17:56.106Z,7.60
2022-08-03T20:20:31.951Z,7.05
2022-08-03T20:23:08.197Z,5.63
2022-08-03T20:25:58.651Z,6.22
2022-08-03T20:28:50.681Z,7.88
2022-08-03T20:31:23.850Z,6.85
2022-08-03T20:34:00.570Z,6.57
2022-08-03T20:36:28.105Z,8.63
2022-08-03T20:41:45.028Z,8.68
2022-08-03T20:44:12.376Z,5.10
2022-08-03T20:46:53.356Z,5.85
2022-08-03T20:49:27.707Z,6.43
2022-08-03T20:51:55.107Z,6.60
2022-08-03T20:54:29.752Z,6.05
2022-08-03T20:57:04.093Z,7.20
2022-08-03T20:59:47.090Z,8.30
2022-08-03T21:02:30.198Z,7.20
2022-08-03T21:05:08.551Z,6.32
2022-08-03T21:08:06.866Z,7.03
2022-08-03T21:10:39.038Z,6.75
2022-08-03T21:13:13.134Z,6.13
2022-08-03T21:16:12.513Z,6.80
2022-08-03T21:18:50.409Z,7.05
2022-08-03T21:21:21.001Z,5.72
2022-08-03T21:23:49.669Z,5.60
2022-08-03T21:26:20.447Z,7.68
2022-08-03T21:29:03.577Z,7.32
2022-08-03T21:31:31.235Z,8.38
2022-08-03T21:34:03.972Z,7.25
2022-08-03T21:36:35.475Z,9.70
2022-08-03T21:39:07.678Z,6.63
2022-08-03T21:41:37.854Z,8.35
2022-08-03T21:44:06.921Z,7.57
2022-08-03T21:46:38.051Z,7.63
2022-08-03T21:50:07.691Z,7.47
2022-08-03T21:52:07.037Z,7.38
2022-08-03T21:54:38.543Z,6.65
2022-08-03T21:57:19.439Z,7.78
2022-08-03T21:59:57.463Z,6.95
2022-08-03T22:02:32.157Z,5.80
2022-08-03T22:05:00.016Z,6.03
2022-08-03T22:07:29.500Z,9.00
2022-08-03T22:09:59.900Z,5.93
2022-08-03T22:12:30.925Z,8.80
2022-08-03T22:15:02.120Z,7.47
2022-08-03T22:17:54.140Z,6.50
2022-08-03T22:20:22.106Z,9.00
2022-08-03T22:22:55.763Z,8.15
2022-08-03T22:25:29.316Z,7.55
2022-08-03T22:28:00.265Z,7.60
2022-08-03T22:30:28.113Z,8.93
2022-08-03T22:32:56.707Z,7.38
2022-08-03T22:35:27.636Z,6.90
2022-08-03T22:37:58.717Z,7.57
2022-08-03T22:40:28.179Z,7.20
2022-08-03T22:42:56.822Z,7.97
2022-08-03T22:46:07.275Z,6.88
2022-08-03T22:48:11.954Z,5.90
2022-08-03T22:50:40.088Z,6.88
2022-08-03T22:53:07.668Z,7.47
2022-08-03T22:55:35.241Z,5.72
2022-08-03T22:58:02.563Z,7.22
2022-08-03T23:00:29.906Z,8.38
2022-08-03T23:03:00.926Z,7.18
2022-08-03T23:06:00.694Z,6.60
2022-08-03T23:08:25.501Z,6.13
2022-08-03T23:10:56.239Z,8.63
2022-08-03T23:13:29.468Z,6.05
2022-08-03T23:15:59.888Z,7.85
2022-08-03T23:18:37.325Z,5.70
2022-08-03T23:21:11.710Z,7.80
2022-08-03T23:23:44.016Z,6.22
2022-08-03T23:26:14.126Z,6.87
2022-08-03T23:28:46.280Z,7.65
2022-08-03T23:31:15.664Z,7.95
2022-08-03T23:33:45.786Z,6.35
2022-08-03T23:36:30.939Z,6.78
2022-08-03T23:39:02.328Z,8.52
2022-08-03T23:41:31.606Z,11.32
2022-08-03T23:44:03.753Z,7.28
2022-08-03T23:46:31.562Z,6.63
2022-08-03T23:49:00.301Z,8.57
2022-08-03T23:51:42.465Z,6.13
2022-08-03T23:54:40.433Z,6.90
2022-08-03T23:57:43.369Z,6.72
